Time;durP1;ratioP1;P1;durP2;ratioP2;P2;SDS_P1;SDS_P2;PMS_P1;PMS_P2;Temp;Humidity;BMP_temperature;BMP_pressure;BME280_temperature;BME280_humidity;BME280_pressure;Samples;Min_cycle;Max_cycle;Signal;HPM_P1;HPM_P2
2021/03/16 00:01:05;;;;;;;43.20;20.13;;;;;;;29.48;55.52;101003.84;5004875;28;65468;-30
2021/03/16 00:03:54;;;;;;;37.97;19.67;;;;;;;29.47;55.42;101007.56;5009047;28;70094;-31
2021/03/16 00:06:41;;;;;;;39.33;20.58;;;;;;;29.43;56.38;101012.56;5013522;28;65398;-36
2021/03/16 00:09:11;;;;;;;43.40;19.90;;;;;;;29.49;56.75;101016.31;5014052;28;69828;-35
2021/03/16 00:11:41;;;;;;;37.53;20.52;;;;;;;29.56;56.01;101020.69;5009338;28;66639;-33
2021/03/16 00:14:11;;;;;;;33.17;19.60;;;;;;;29.57;56.19;101014.22;5008464;28;70608;-33
2021/03/16 00:16:41;;;;;;;43.42;20.83;;;;;;;29.62;56.43;101029.81;5006955;28;66165;-32
2021/03/16 00:19:11;;;;;;;36.25;19.65;;;;;;;29.64;56.25;101030.47;5010891;28;71151;-31
2021/03/16 00:21:41;;;;;;;42.50;20.42;;;;;;;29.74;56.61;101035.47;5009353;28;65402;-32
2021/03/16 00:24:12;;;;;;;38.72;19.15;;;;;;;29.70;56.82;101026.94;5007323;28;70506;-32
2021/03/16 00:26:42;;;;;;;41.88;18.23;;;;;;;29.77;56.63;101043.97;5003503;28;67718;-36
2021/03/16 00:29:12;;;;;;;34.13;17.50;;;;;;;29.74;56.55;101055.22;4997024;28;69625;-30
2021/03/16 00:31:42;;;;;;;42.47;21.30;;;;;;;29.71;57.52;101050.22;5006184;28;68041;-31
2021/03/16 00:34:13;;;;;;;56.67;28.30;;;;;;;29.73;56.96;101058.97;5015790;28;69272;-31
2021/03/16 00:36:43;;;;;;;80.47;36.28;;;;;;;29.78;57.18;101061.88;5009486;28;66044;-31
2021/03/16 00:39:14;;;;;;;76.75;34.90;;;;;;;29.79;56.37;101068.13;5007567;28;69048;-31
2021/03/16 00:41:45;;;;;;;76.55;34.15;;;;;;;29.78;56.17;101063.72;5010053;28;65816;-31
2021/03/16 00:44:15;;;;;;;71.88;33.95;;;;;;;29.78;56.73;101072.69;5011699;28;70093;-31
2021/03/16 00:46:45;;;;;;;77.13;29.85;;;;;;;29.82;56.45;101073.09;5009315;28;65585;-32
2021/03/16 00:49:15;;;;;;;67.35;30.85;;;;;;;29.77;56.04;101076.44;5004202;28;70054;-31
2021/03/16 00:51:46;;;;;;;59.25;30.27;;;;;;;29.80;55.66;101086.81;4997450;28;66780;-31
2021/03/16 00:54:16;;;;;;;65.50;30.38;;;;;;;29.86;56.02;101095.16;5013142;28;69159;-31
2021/03/16 00:56:47;;;;;;;61.03;29.02;;;;;;;29.82;55.28;101090.16;4997220;28;64461;-32
2021/03/16 00:59:16;;;;;;;61.20;29.58;;;;;;;29.84;55.52;101098.91;5009399;28;71635;-31
2021/03/16 01:01:46;;;;;;;63.92;29.40;;;;;;;29.89;55.38;101108.25;5005460;28;65838;-32
2021/03/16 01:04:16;;;;;;;57.80;27.15;;;;;;;29.91;55.06;101117.00;5000356;28;69840;-31
2021/03/16 01:06:46;;;;;;;57.60;28.60;;;;;;;29.71;55.50;101076.44;5013830;28;65935;-33
2021/03/16 01:09:16;;;;;;;55.05;26.90;;;;;;;29.94;54.81;101119.28;5003128;28;69943;-31
2021/03/16 01:11:46;;;;;;;62.17;27.48;;;;;;;29.96;54.85;101123.44;4995976;28;65102;-31
2021/03/16 01:14:16;;;;;;;53.10;26.13;;;;;;;29.99;54.95;101133.03;5012037;28;69591;-34
2021/03/16 01:16:46;;;;;;;48.25;24.83;;;;;;;30.00;55.02;101134.66;5011510;28;66018;-31
2021/03/16 01:19:16;;;;;;;56.25;25.55;;;;;;;29.99;54.50;101116.78;5013680;28;70196;-31
2021/03/16 01:21:45;;;;;;;56.78;26.33;;;;;;;29.97;54.63;101118.88;5014030;28;65515;-30
2021/03/16 01:24:15;;;;;;;50.47;25.02;;;;;;;30.04;54.33;101131.34;5001454;28;70852;-31
2021/03/16 01:26:45;;;;;;;45.80;24.40;;;;;;;30.00;54.27;101118.44;5006430;28;66010;-33
2021/03/16 01:29:15;;;;;;;45.10;22.88;;;;;;;30.06;54.67;101128.41;4995019;28;70460;-31
2021/03/16 01:31:45;;;;;;;41.00;22.75;;;;;;;30.05;54.60;101129.47;5009421;28;66199;-31
2021/03/16 01:34:15;;;;;;;41.22;23.00;;;;;;;30.09;54.28;101136.16;5011044;28;69974;-32
2021/03/16 01:36:45;;;;;;;45.55;22.80;;;;;;;30.10;54.22;101134.28;5010737;28;65725;-32
2021/03/16 01:39:15;;;;;;;39.53;21.92;;;;;;;30.14;54.30;101136.31;5006340;28;70218;-32
2021/03/16 01:41:45;;;;;;;44.08;21.90;;;;;;;30.13;54.43;101140.09;5010955;28;64904;-31
2021/03/16 01:44:15;;;;;;;39.78;22.95;;;;;;;30.17;53.87;101151.31;5015488;28;69319;-31
2021/03/16 01:46:46;;;;;;;37.80;22.23;;;;;;;30.16;54.27;101147.78;4997828;28;66383;-31
2021/03/16 01:49:16;;;;;;;41.22;21.65;;;;;;;30.20;54.31;101150.88;5012977;28;69461;-31
2021/03/16 01:51:46;;;;;;;39.67;21.73;;;;;;;30.19;54.21;101150.06;5012432;28;65840;-31
2021/03/16 01:54:15;;;;;;;37.60;21.15;;;;;;;30.22;53.88;101149.66;5001645;28;70049;-31
2021/03/16 01:56:48;;;;;;;38.17;21.40;;;;;;;30.15;53.63;101129.91;5013014;28;66350;-31
2021/03/16 01:59:36;;;;;;;43.28;21.48;;;;;;;30.26;53.93;101150.94;4994899;28;70013;-32
2021/03/16 02:02:24;;;;;;;41.08;20.92;;;;;;;30.28;53.54;101143.44;5003500;28;66324;-32
2021/03/16 02:05:14;;;;;;;37.60;20.77;;;;;;;30.32;53.06;101146.56;5008728;28;70156;-32
2021/03/16 02:08:17;;;;;;;35.22;20.17;;;;;;;30.29;53.37;101149.69;5005611;28;66200;-32
2021/03/16 02:11:26;;;;;;;31.95;19.48;;;;;;;30.39;53.25;101155.47;5008746;28;70692;-31
2021/03/16 02:14:27;;;;;;;32.25;20.08;;;;;;;30.32;53.19;101137.59;5005090;28;66628;-32
2021/03/16 02:17:20;;;;;;;31.23;18.80;;;;;;;30.39;52.94;101138.41;5008684;28;71517;-32
2021/03/16 02:20:21;;;;;;;33.63;19.40;;;;;;;30.47;52.55;101151.72;5004345;28;66531;-32
2021/03/16 02:23:14;;;;;;;32.42;20.27;;;;;;;30.47;52.96;101147.13;5003615;28;70342;-32
2021/03/16 02:26:13;;;;;;;33.45;19.98;;;;;;;30.49;52.83;101149.66;5010861;28;66247;-33
2021/03/16 02:29:12;;;;;;;33.85;19.15;;;;;;;30.51;52.46;101152.97;5012428;28;68821;-31
2021/03/16 02:32:05;;;;;;;33.50;19.65;;;;;;;30.54;52.18;101140.91;4992531;28;63957;-32
2021/03/16 02:35:02;;;;;;;38.58;19.45;;;;;;;30.60;52.03;101150.88;5006715;28;69290;-34
2021/03/16 02:37:55;;;;;;;33.10;19.67;;;;;;;30.63;51.79;101145.88;5006224;28;66417;-33
2021/03/16 02:40:48;;;;;;;32.15;18.25;;;;;;;30.67;52.23;101147.13;5011769;28;69049;-32
2021/03/16 02:43:37;;;;;;;44.15;19.73;;;;;;;30.69;51.84;101145.00;4995844;28;65859;-31
2021/03/16 02:46:26;;;;;;;31.25;18.75;;;;;;;30.73;51.61;101140.84;4996765;28;69220;-31
2021/03/16 02:49:17;;;;;;;26.77;17.38;;;;;;;30.76;51.99;101138.72;5008192;28;66063;-33
2021/03/16 02:52:06;;;;;;;27.60;18.50;;;;;;;30.76;51.81;101133.31;5006543;28;69305;-32
2021/03/16 02:54:56;;;;;;;28.85;18.50;;;;;;;30.81;51.41;101126.25;5010283;28;66128;-31
2021/03/16 02:57:45;;;;;;;25.67;17.70;;;;;;;30.85;51.81;101134.78;5011635;28;69702;-30
2021/03/16 03:00:33;;;;;;;28.90;18.55;;;;;;;30.86;51.48;101128.31;4998122;28;66079;-30
2021/03/16 03:03:23;;;;;;;30.83;18.02;;;;;;;30.88;51.49;101121.66;5003188;28;70403;-31
2021/03/16 03:06:16;;;;;;;26.67;17.88;;;;;;;30.90;51.49;101124.97;5008682;28;65314;-31
2021/03/16 03:09:24;;;;;;;30.03;17.97;;;;;;;30.90;50.94;101111.44;4971663;28;69711;-32
2021/03/16 03:12:12;;;;;;;27.77;17.92;;;;;;;31.00;51.39;101113.66;4972456;28;66667;-33
2021/03/16 03:15:00;;;;;;;28.60;18.25;;;;;;;31.02;51.18;101111.59;4972359;28;69990;-31
2021/03/16 03:17:47;;;;;;;21.65;17.02;;;;;;;31.05;51.12;101105.72;4970645;28;66509;-32
2021/03/16 03:20:36;;;;;;;27.98;17.65;;;;;;;31.11;50.74;101107.56;4972974;28;70157;-32
2021/03/16 03:23:34;;;;;;;25.25;16.83;;;;;;;31.12;51.09;101101.13;4971763;28;65919;-31
2021/03/16 03:27:07;;;;;;;31.33;18.30;;;;;;;31.13;50.53;101097.34;4972460;28;68807;-31
2021/03/16 03:30:03;;;;;;;28.00;17.88;;;;;;;31.06;50.58;101058.63;4972343;28;65862;-31
2021/03/16 03:32:54;;;;;;;24.47;18.07;;;;;;;31.25;50.84;101093.94;4970791;28;70275;-32
2021/03/16 03:35:45;;;;;;;29.85;18.67;;;;;;;31.26;50.38;101079.34;4971684;28;65952;-32
2021/03/16 03:38:34;;;;;;;26.75;18.58;;;;;;;31.32;50.59;101075.78;4970825;28;69865;-30
2021/03/16 03:41:26;;;;;;;24.35;16.90;;;;;;;31.30;50.24;101061.59;4972180;28;66850;-32
2021/03/16 03:44:17;;;;;;;22.85;17.38;;;;;;;31.33;50.28;101062.00;4954161;28;70607;-31
2021/03/16 03:47:09;;;;;;;23.30;17.20;;;;;;;31.38;49.97;101055.97;4991211;28;66378;-32
2021/03/16 03:50:00;;;;;;;25.77;16.67;;;;;;;31.32;50.07;101040.53;4992822;28;69872;-31
2021/03/16 03:52:54;;;;;;;25.00;17.48;;;;;;;31.35;50.03;101045.53;5006856;28;66471;-32
2021/03/16 03:55:44;;;;;;;20.05;16.02;;;;;;;31.49;50.03;101044.41;5008732;28;70097;-31
2021/03/16 03:58:38;;;;;;;23.58;17.02;;;;;;;31.45;49.82;101035.03;4991827;28;65769;-33
2021/03/16 04:01:29;;;;;;;20.10;16.60;;;;;;;31.57;49.91;101037.88;5004485;28;69891;-32
2021/03/16 04:04:19;;;;;;;21.35;16.83;;;;;;;31.60;50.02;101038.25;5014033;28;66141;-32
2021/03/16 04:07:08;;;;;;;22.17;16.90;;;;;;;31.63;49.96;101034.28;5007226;28;70299;-31
2021/03/16 04:09:57;;;;;;;24.27;18.02;;;;;;;31.68;49.50;101022.75;5005939;28;66459;-31
2021/03/16 04:12:46;;;;;;;33.40;17.90;;;;;;;31.74;49.41;101022.69;5003844;28;70045;-33
2021/03/16 04:15:36;;;;;;;24.45;17.63;;;;;;;31.78;49.39;101029.31;5006024;28;66554;-37
2021/03/16 04:18:25;;;;;;;28.63;18.02;;;;;;;31.78;48.99;101017.66;4999792;28;69490;-31
2021/03/16 04:21:16;;;;;;;23.38;17.67;;;;;;;31.87;49.07;101021.72;5016905;28;65885;-31
2021/03/16 04:24:05;;;;;;;26.23;16.95;;;;;;;31.90;49.18;101015.88;5014063;28;70029;-31
2021/03/16 04:26:53;;;;;;;26.00;17.25;;;;;;;31.91;48.75;101005.84;5015121;28;66022;-31
2021/03/16 04:29:41;;;;;;;25.85;16.80;;;;;;;31.98;49.29;101004.75;5012857;28;70123;-31
2021/03/16 04:32:29;;;;;;;23.55;16.75;;;;;;;32.00;49.33;100990.97;5006579;28;66179;-32
2021/03/16 04:35:18;;;;;;;21.65;17.58;;;;;;;32.04;48.73;100984.88;4996732;28;69967;-32
2021/03/16 04:38:07;;;;;;;30.40;17.48;;;;;;;32.10;49.01;100985.03;5008175;28;66619;-31
2021/03/16 04:40:56;;;;;;;27.70;18.25;;;;;;;32.16;48.95;100981.41;5009097;28;69784;-31
2021/03/16 04:43:45;;;;;;;19.67;16.98;;;;;;;32.17;48.71;100974.91;5005375;28;66114;-31
2021/03/16 04:46:33;;;;;;;28.10;17.50;;;;;;;32.24;48.62;100962.09;5016291;28;69820;-31
2021/03/16 04:49:21;;;;;;;23.65;18.17;;;;;;;32.25;48.63;100958.31;5018541;28;65506;-30
2021/03/16 04:52:09;;;;;;;22.83;17.55;;;;;;;32.32;48.43;100964.50;5017127;28;70134;-31
2021/03/16 04:54:57;;;;;;;23.48;17.00;;;;;;;32.35;48.39;100958.59;5012958;28;66054;-32
2021/03/16 04:57:45;;;;;;;20.15;16.23;;;;;;;32.38;48.45;100957.31;4999619;28;69370;-31
2021/03/16 05:00:34;;;;;;;24.90;17.40;;;;;;;32.41;48.21;100940.56;5015604;28;66083;-31
2021/03/16 05:03:23;;;;;;;23.90;16.58;;;;;;;32.45;48.17;100941.75;5016794;28;70558;-32
2021/03/16 05:06:11;;;;;;;21.75;17.45;;;;;;;32.51;47.88;100945.47;4999234;28;66171;-31
2021/03/16 05:09:01;;;;;;;19.75;16.70;;;;;;;32.51;48.07;100924.56;5010429;28;70044;-31
2021/03/16 05:11:49;;;;;;;24.83;17.13;;;;;;;32.52;48.11;100920.81;5007552;28;66018;-31
2021/03/16 05:14:38;;;;;;;21.08;16.88;;;;;;;32.52;48.31;100914.56;5015250;28;69961;-31
2021/03/16 05:17:27;;;;;;;20.27;16.90;;;;;;;32.59;47.76;100909.84;5012526;28;65968;-31
2021/03/16 05:20:16;;;;;;;24.65;17.08;;;;;;;32.59;47.66;100891.66;5015433;28;69987;-31
2021/03/16 05:23:04;;;;;;;21.15;16.75;;;;;;;32.70;47.74;100895.47;4989992;28;65956;-31
2021/03/16 05:25:53;;;;;;;20.65;16.50;;;;;;;32.74;47.73;100891.25;5015213;28;69394;-31
2021/03/16 05:28:42;;;;;;;23.73;16.98;;;;;;;32.77;47.44;100890.78;5018261;28;66330;-32
2021/03/16 05:31:32;;;;;;;20.45;16.92;;;;;;;32.78;47.69;100867.97;5002773;28;70072;-31
2021/03/16 05:34:22;;;;;;;22.25;16.42;;;;;;;32.78;47.45;100881.56;5011613;28;66447;-32
2021/03/16 05:37:12;;;;;;;19.00;15.50;;;;;;;32.82;47.50;100871.91;5015501;28;70717;-31
2021/03/16 05:40:02;;;;;;;23.90;17.38;;;;;;;32.86;47.15;100867.63;5014080;28;65787;-31
2021/03/16 05:42:52;;;;;;;21.40;16.60;;;;;;;32.90;47.08;100852.53;5016597;28;69935;-31
2021/03/16 05:45:41;;;;;;;19.60;16.90;;;;;;;32.94;47.27;100856.41;5000425;28;65466;-31
2021/03/16 05:48:30;;;;;;;23.98;16.45;;;;;;;33.03;47.27;100853.38;5013389;28;69272;-31
2021/03/16 05:51:20;;;;;;;28.42;16.52;;;;;;;33.02;47.24;100838.97;5011055;28;66335;-31
2021/03/16 05:54:09;;;;;;;20.13;15.93;;;;;;;33.06;46.75;100839.31;5015412;28;70152;-32
2021/03/16 05:57:00;;;;;;;21.85;16.88;;;;;;;33.11;47.03;100832.13;5015624;28;65835;-31
2021/03/16 05:59:49;;;;;;;19.35;15.45;;;;;;;33.11;47.19;100820.41;5014795;28;69077;-31
2021/03/16 06:02:38;;;;;;;20.38;16.95;;;;;;;33.16;47.07;100817.81;5022981;28;65849;-32
2021/03/16 06:05:27;;;;;;;17.40;15.63;;;;;;;33.12;46.84;100803.03;5000881;28;68211;-31
2021/03/16 06:08:16;;;;;;;19.80;15.57;;;;;;;33.18;46.69;100809.41;5006093;28;65737;-32
2021/03/16 06:11:08;;;;;;;18.38;15.52;;;;;;;33.12;46.90;100790.28;5014617;28;70150;-32
2021/03/16 06:13:58;;;;;;;19.38;16.17;;;;;;;33.22;46.86;100791.59;5013892;28;65949;-31
2021/03/16 06:16:46;;;;;;;23.48;16.02;;;;;;;33.25;46.83;100789.22;5015088;28;70037;-31
2021/03/16 06:19:36;;;;;;;19.10;16.60;;;;;;;33.30;46.82;100783.88;5000693;28;67260;-30
2021/03/16 06:22:25;;;;;;;24.20;15.10;;;;;;;33.33;46.60;100777.16;5016030;28;69468;-31
2021/03/16 06:25:14;;;;;;;17.75;15.15;;;;;;;33.35;46.73;100778.56;5007776;28;65829;-32
2021/03/16 06:28:08;;;;;;;21.60;15.23;;;;;;;33.34;46.62;100771.44;5003453;28;70186;-31
2021/03/16 06:31:01;;;;;;;17.02;15.23;;;;;;;33.35;46.38;100762.25;5015558;28;66811;-31
2021/03/16 06:33:51;;;;;;;18.10;15.98;;;;;;;33.44;46.62;100764.59;5007160;28;69399;-31
2021/03/16 06:36:39;;;;;;;25.23;15.02;;;;;;;33.47;46.50;100758.66;5013389;28;66164;-32
2021/03/16 06:39:28;;;;;;;17.90;15.20;;;;;;;33.48;46.56;100755.69;5008082;28;70494;-31
2021/03/16 06:42:29;;;;;;;19.38;15.30;;;;;;;33.48;46.76;100746.72;5016245;28;66155;-31
2021/03/16 06:45:18;;;;;;;16.95;15.18;;;;;;;33.55;46.62;100744.72;5013693;28;70110;-31
2021/03/16 06:48:17;;;;;;;15.63;14.23;;;;;;;33.58;46.22;100731.47;5013406;28;66004;-31
2021/03/16 06:51:14;;;;;;;20.05;15.38;;;;;;;33.61;45.82;100730.16;5011644;28;69703;-32
2021/03/16 06:54:14;;;;;;;15.88;14.23;;;;;;;33.63;45.96;100733.47;4992911;28;66275;-30
2021/03/16 06:57:03;;;;;;;20.67;15.20;;;;;;;33.71;46.27;100724.91;5013235;28;70617;-31
2021/03/16 06:59:51;;;;;;;17.73;14.98;;;;;;;33.72;46.07;100718.38;5014738;28;65933;-31
2021/03/16 07:02:40;;;;;;;17.30;14.95;;;;;;;33.73;46.41;100706.44;5010381;28;69144;-30
2021/03/16 07:05:29;;;;;;;16.92;14.75;;;;;;;33.83;46.05;100713.16;5012475;28;66257;-30
2021/03/16 07:08:18;;;;;;;22.15;14.65;;;;;;;33.87;45.97;100709.66;5012407;28;70918;-31
2021/03/16 07:11:09;;;;;;;15.32;13.82;;;;;;;33.89;45.83;100699.38;4999838;28;65706;-31
2021/03/16 07:13:59;;;;;;;19.70;14.70;;;;;;;33.94;46.07;100706.81;5015235;28;70610;-32
2021/03/16 07:16:49;;;;;;;18.48;14.95;;;;;;;33.86;45.92;100693.59;4998669;28;65628;-31
2021/03/16 07:19:39;;;;;;;17.52;15.00;;;;;;;34.00;45.88;100708.53;5013613;28;70541;-31
2021/03/16 07:22:37;;;;;;;17.40;15.02;;;;;;;34.03;45.72;100697.16;5010120;28;66157;-31
2021/03/16 07:25:25;;;;;;;22.20;14.35;;;;;;;34.09;45.56;100704.38;5005959;28;69289;-32
2021/03/16 07:28:14;;;;;;;24.15;14.27;;;;;;;34.15;45.48;100703.38;5013485;28;65961;-31
2021/03/16 07:31:05;;;;;;;16.40;13.85;;;;;;;34.18;45.54;100696.63;5015700;28;70809;-31
2021/03/16 07:34:00;;;;;;;20.10;14.27;;;;;;;34.19;45.39;100701.81;4997579;28;66267;-31
2021/03/16 07:36:49;;;;;;;19.15;14.90;;;;;;;34.25;45.48;100703.56;5014053;28;69912;-30
2021/03/16 07:39:38;;;;;;;21.95;14.50;;;;;;;34.28;45.31;100693.25;5014392;28;65832;-31
2021/03/16 07:42:27;;;;;;;15.20;13.70;;;;;;;34.24;44.92;100680.13;5009729;28;69998;-31
2021/03/16 07:45:30;;;;;;;22.50;14.85;;;;;;;34.30;45.23;100693.81;5001620;28;65399;-31
2021/03/16 07:48:20;;;;;;;15.45;13.85;;;;;;;34.33;45.39;100691.44;5008136;28;70283;-31
2021/03/16 07:51:15;;;;;;;17.27;13.77;;;;;;;34.38;45.13;100694.25;5007447;28;66229;-32
2021/03/16 07:54:06;;;;;;;17.73;13.10;;;;;;;34.42;45.07;100683.66;5004564;28;69234;-33
2021/03/16 07:56:59;;;;;;;15.05;13.43;;;;;;;34.43;45.34;100679.84;4993581;28;65373;-30
2021/03/16 08:00:00;;;;;;;18.67;14.57;;;;;;;34.37;44.78;100664.53;5007439;28;69878;-32
2021/03/16 08:02:57;;;;;;;19.92;13.63;;;;;;;34.56;44.64;100695.06;5000822;28;66436;-31
2021/03/16 08:05:46;;;;;;;21.65;14.05;;;;;;;34.63;44.89;100690.25;5000269;28;70401;-31
2021/03/16 08:08:40;;;;;;;16.05;13.95;;;;;;;34.64;44.71;100698.19;4996003;28;66319;-32
2021/03/16 08:11:40;;;;;;;17.15;14.15;;;;;;;34.66;44.48;100695.22;5008862;28;69313;-32
2021/03/16 08:14:30;;;;;;;15.75;12.85;;;;;;;34.72;44.76;100693.41;5007696;28;66042;-31
2021/03/16 08:17:38;;;;;;;20.52;13.65;;;;;;;34.71;44.41;100692.53;5009411;28;70214;-35
2021/03/16 08:20:27;;;;;;;19.63;13.18;;;;;;;34.79;44.72;100694.03;5005736;28;65075;-31
2021/03/16 08:23:15;;;;;;;20.33;14.07;;;;;;;34.84;44.63;100696.81;5006797;28;69633;-32
2021/03/16 08:26:05;;;;;;;20.00;13.07;;;;;;;34.82;44.53;100696.25;5007444;28;66018;-31
2021/03/16 08:28:53;;;;;;;21.20;13.88;;;;;;;34.81;44.63;100686.44;5003685;28;69908;-31
2021/03/16 08:31:45;;;;;;;26.88;13.73;;;;;;;34.88;44.54;100682.44;4998588;28;64894;-32
2021/03/16 08:34:36;;;;;;;14.20;12.70;;;;;;;34.91;44.43;100686.56;5009280;28;70304;-32
2021/03/16 08:37:28;;;;;;;22.52;13.85;;;;;;;34.95;44.40;100692.34;5004742;28;66210;-32
2021/03/16 08:40:24;;;;;;;20.27;13.52;;;;;;;34.95;44.32;100684.97;5012544;28;70115;-32
2021/03/16 08:43:12;;;;;;;28.17;12.98;;;;;;;35.00;44.28;100695.94;5012770;28;65457;-32
2021/03/16 08:46:00;;;;;;;20.30;12.48;;;;;;;34.99;44.24;100694.28;5014848;28;70427;-33
2021/03/16 08:48:51;;;;;;;21.85;12.68;;;;;;;35.03;44.32;100694.63;5015767;28;66196;-32
2021/03/16 08:51:39;;;;;;;21.17;12.65;;;;;;;35.05;44.26;100687.84;4993015;28;69892;-32
2021/03/16 08:54:28;;;;;;;22.75;13.55;;;;;;;35.08;44.37;100686.53;5011320;28;66827;-33
2021/03/16 08:57:19;;;;;;;17.83;12.57;;;;;;;35.11;44.03;100697.75;5013296;28;70229;-31
2021/03/16 09:00:08;;;;;;;20.42;12.68;;;;;;;35.12;43.95;100683.03;5013612;28;66517;-32
2021/03/16 09:02:56;;;;;;;22.50;13.13;;;;;;;35.20;44.06;100694.59;5009768;28;70572;-33
2021/03/16 09:05:45;;;;;;;16.48;12.43;;;;;;;35.19;44.03;100684.75;5016260;28;66790;-32
2021/03/16 09:08:33;;;;;;;15.00;12.68;;;;;;;35.22;43.88;100701.44;5018163;28;69888;-32
2021/03/16 09:11:33;;;;;;;25.90;12.27;;;;;;;35.22;43.82;100695.97;5017875;28;65902;-31
2021/03/16 09:14:23;;;;;;;16.08;12.02;;;;;;;35.24;44.08;100696.53;5015641;28;69303;-32
2021/03/16 09:17:11;;;;;;;16.48;12.00;;;;;;;35.25;43.89;100702.84;5013412;28;66813;-33
2021/03/16 09:20:08;;;;;;;15.00;12.38;;;;;;;35.25;43.95;100708.28;5013320;28;70077;-32
2021/03/16 09:23:02;;;;;;;16.05;12.05;;;;;;;35.30;43.99;100716.50;5007011;28;65684;-32
2021/03/16 09:25:50;;;;;;;21.13;12.52;;;;;;;35.34;43.94;100713.03;5010956;28;70571;-31
2021/03/16 09:28:41;;;;;;;15.88;12.02;;;;;;;35.36;43.44;100715.50;5007270;28;67178;-34
2021/03/16 09:31:29;;;;;;;16.35;12.73;;;;;;;35.40;43.76;100713.91;5016275;28;70267;-32
2021/03/16 09:34:18;;;;;;;14.75;12.40;;;;;;;35.39;43.56;100704.09;5021682;28;65569;-32
2021/03/16 09:37:09;;;;;;;15.52;12.77;;;;;;;35.47;43.71;100721.91;5009321;28;68904;-32
2021/03/16 09:40:08;;;;;;;14.45;11.90;;;;;;;35.45;43.44;100718.59;4991263;28;65256;-32
2021/03/16 09:42:53;;;;;;;14.40;12.07;;;;;;;35.46;43.74;100721.06;5002359;28;69258;-32
2021/03/16 09:45:26;;;;;;;18.00;12.20;;;;;;;35.33;43.72;100711.38;5014594;28;66042;-30
2021/03/16 09:47:59;;;;;;;15.00;11.65;;;;;;;35.41;43.79;100722.91;5015851;28;69250;-32
2021/03/16 09:50:35;;;;;;;20.77;12.25;;;;;;;35.40;43.59;100722.09;5014466;28;66413;-31
2021/03/16 09:53:06;;;;;;;15.65;11.95;;;;;;;35.36;43.43;100726.41;5015310;28;69066;-31
2021/03/16 09:55:36;;;;;;;;;;;;;;;35.48;43.32;100729.00;5009447;28;66231;-32
2021/03/16 09:58:06;;;;;;;19.20;12.43;;;;;;;35.47;43.26;100717.28;5004297;28;70191;-32
2021/03/16 10:00:35;;;;;;;15.38;12.18;;;;;;;35.48;43.32;100729.00;5005734;28;64679;-32
2021/03/16 10:03:10;;;;;;;20.13;12.05;;;;;;;35.25;44.33;100724.66;5012469;28;69369;-33
2021/03/16 10:05:41;;;;;;;16.92;11.48;;;;;;;35.05;44.67;100712.38;4991484;28;67356;-33
2021/03/16 10:08:21;;;;;;;17.85;12.02;;;;;;;34.92;44.84;100721.72;5015606;28;69944;-31
2021/03/16 10:10:51;;;;;;;19.67;11.75;;;;;;;34.86;45.04;100738.28;5012476;28;66176;-34
2021/03/16 10:13:39;;;;;;;19.45;12.07;;;;;;;34.68;45.46;100729.28;5016289;28;70464;-32
2021/03/16 10:16:11;;;;;;;23.92;12.55;;;;;;;34.73;45.17;100744.06;5002447;28;66847;-33
2021/03/16 10:18:56;;;;;;;18.20;11.88;;;;;;;34.68;45.45;100748.34;5013710;28;70065;-33
2021/03/16 10:21:34;;;;;;;;;;;;;;;34.56;45.64;100750.38;4999494;28;64961;-32
2021/03/16 10:24:05;;;;;;;31.02;11.88;;;;;;;34.50;45.95;100755.97;5012712;28;69824;-33
2021/03/16 10:26:35;;;;;;;27.92;12.60;;;;;;;34.43;45.40;100756.94;5013660;28;65255;-33
2021/03/16 10:29:14;;;;;;;25.17;11.30;;;;;;;34.26;46.27;100751.47;5014969;28;70454;-32
2021/03/16 10:31:43;;;;;;;27.77;13.40;;;;;;;34.32;46.12;100748.84;5005673;28;66014;-32
2021/03/16 10:34:13;;;;;;;23.05;12.50;;;;;;;34.21;46.19;100765.03;5011105;28;69955;-32
2021/03/16 10:36:43;;;;;;;23.63;12.40;;;;;;;34.18;46.37;100748.34;5003657;28;65421;-33
2021/03/16 10:39:13;;;;;;;24.80;12.95;;;;;;;34.11;46.76;100745.78;5015922;28;69361;-33
2021/03/16 10:41:43;;;;;;;22.80;12.68;;;;;;;34.05;47.20;100749.50;5008921;28;65195;-39
2021/03/16 10:44:14;;;;;;;22.60;12.45;;;;;;;34.01;46.75;100743.66;5006199;28;70278;-33
2021/03/16 10:46:47;;;;;;;20.63;13.18;;;;;;;33.99;46.88;100739.53;5008149;28;66389;-34
2021/03/16 10:49:18;;;;;;;24.55;12.68;;;;;;;33.98;46.79;100743.34;4994471;28;70875;-31
2021/03/16 10:51:48;;;;;;;23.17;12.30;;;;;;;33.98;47.06;100744.16;5007263;28;66223;-33
2021/03/16 10:54:18;;;;;;;28.25;13.30;;;;;;;33.96;47.43;100742.75;5005696;28;70279;-32
2021/03/16 10:56:51;;;;;;;24.27;13.18;;;;;;;33.98;47.13;100744.16;5012280;28;67084;-31
2021/03/16 10:59:23;;;;;;;23.53;14.93;;;;;;;33.93;47.55;100756.84;4983040;28;69397;-33
2021/03/16 11:01:53;;;;;;;27.10;14.93;;;;;;;33.93;47.84;100752.22;5009310;28;66219;-33
2021/03/16 11:04:24;;;;;;;26.35;13.88;;;;;;;33.85;47.63;100735.47;5009226;28;69835;-31
2021/03/16 11:06:54;;;;;;;30.17;14.13;;;;;;;33.93;48.38;100751.41;5015073;28;65225;-31
2021/03/16 11:09:24;;;;;;;24.60;13.10;;;;;;;33.88;48.08;100759.47;5015891;28;69965;-33
2021/03/16 11:11:54;;;;;;;22.65;13.40;;;;;;;33.79;48.00;100750.88;5013327;28;65888;-33
2021/03/16 11:14:24;;;;;;;19.55;13.15;;;;;;;33.78;48.50;100758.22;4996974;28;70433;-37
2021/03/16 11:16:54;;;;;;;24.63;13.05;;;;;;;33.75;48.40;100766.03;5013593;28;65224;-29
2021/03/16 11:19:24;;;;;;;22.38;13.10;;;;;;;33.67;48.44;100750.94;5015118;28;69785;-32
2021/03/16 11:21:53;;;;;;;27.23;13.38;;;;;;;33.69;48.36;100762.41;5013667;28;65667;-31
2021/03/16 11:24:23;;;;;;;26.85;13.00;;;;;;;33.61;48.62;100749.19;5014613;28;70041;-32
2021/03/16 11:26:55;;;;;;;30.08;14.05;;;;;;;33.68;49.00;100765.34;5020529;28;65156;-31
2021/03/16 11:29:25;;;;;;;17.58;13.15;;;;;;;33.67;48.70;100764.53;5015100;28;69294;-30
2021/03/16 11:31:55;;;;;;;17.55;12.23;;;;;;;33.60;48.67;100769.31;5013385;28;66182;-30
2021/03/16 11:34:43;;;;;;;13.45;11.23;;;;;;;33.44;47.50;100770.03;5012688;28;69567;-31
2021/03/16 11:37:31;;;;;;;15.02;9.88;;;;;;;33.33;46.77;100782.59;5013903;28;65549;-31
2021/03/16 11:40:20;;;;;;;11.70;8.23;;;;;;;33.32;46.11;100779.03;5012518;28;69283;-31
2021/03/16 11:43:08;;;;;;;7.18;6.60;;;;;;;33.18;45.04;100783.06;5015118;28;65434;-33
2021/03/16 11:46:16;;;;;;;6.63;6.22;;;;;;;33.05;44.58;100794.19;5003657;28;69699;-32
2021/03/16 11:49:04;;;;;;;6.32;5.78;;;;;;;32.93;43.90;100783.28;5011978;28;65443;-31
2021/03/16 11:51:52;;;;;;;6.28;5.57;;;;;;;32.88;43.68;100789.44;5015235;28;69987;-30
2021/03/16 11:54:40;;;;;;;5.82;5.43;;;;;;;32.80;42.73;100795.22;4995498;28;66196;-31
2021/03/16 11:57:29;;;;;;;5.43;5.03;;;;;;;32.69;42.12;100799.59;5003202;28;70121;-31
2021/03/16 12:00:17;;;;;;;4.32;4.03;;;;;;;32.61;41.78;100805.34;5013363;28;65433;-31
2021/03/16 12:03:06;;;;;;;4.18;3.85;;;;;;;32.48;41.36;100802.84;5013350;28;70498;-31
2021/03/16 12:05:55;;;;;;;4.15;3.88;;;;;;;32.37;40.87;100799.00;5015728;28;65424;-30
2021/03/16 12:08:43;;;;;;;4.13;3.72;;;;;;;32.33;40.49;100803.28;5016778;28;70613;-35
2021/03/16 12:11:31;;;;;;;3.70;3.40;;;;;;;32.30;40.15;100813.78;5012602;28;66220;-32
2021/03/16 12:14:19;;;;;;;3.28;3.08;;;;;;;32.22;39.90;100823.06;4999346;28;70195;-32
2021/03/16 12:17:12;;;;;;;3.38;3.17;;;;;;;32.12;39.02;100809.22;5005633;28;65736;-30
2021/03/16 12:20:01;;;;;;;3.67;3.38;;;;;;;32.11;39.85;100821.13;5014655;28;69790;-30
2021/03/16 12:22:49;;;;;;;28.27;12.13;;;;;;;32.08;40.56;100836.00;5012134;28;66211;-32
2021/03/16 12:25:38;;;;;;;21.65;11.07;;;;;;;32.10;40.49;100824.91;5013055;28;70483;-31
2021/03/16 12:28:27;;;;;;;16.80;9.95;;;;;;;32.09;40.21;100834.09;5016593;28;66577;-32
2021/03/16 12:31:16;;;;;;;17.15;9.85;;;;;;;32.02;40.65;100835.03;5013071;28;69233;-31